Tropical Cyclones
[Index]
Main Index Home Page Stock Weather Photos Extreme Storms Discussion Storm News and Storm Chasing Reports Tropical Cyclones / Hurricanes / Typhoons Weather Data and Links Wild Fires / Bushfires Weather Observation Techniques Weather Picture Catalogue Tornado Pictures and Reports Stock Video Footage and DVDs for sale
Season 1992-1993 Tropical Cyclone NINA Track Map
Season 1992-1993 Summaries: [BoM-AU] [JTWC-AU] [JTWC-SIO] [JTWC-SPAC] [JTWC-SH]
<<- Previous TC | BoM 1992-1993 Season | Next TC ->>

click for intensity scale information  Lat/long Grid: Show Hide

 Date Labels: Show Hide

Bureau of Meteorology Tropical Cyclone Data

Name: NINA
Number: 754 / 199293_02

23 Dec 1992 00:00 UTC to 02 Jan 1993 18:00 UTC

    date/time    lat    long    hPa   cat  kts
1992-12-23 00   13.0   140.0    996         31          
1992-12-23 06   12.5   139.6    996         31          
1992-12-23 12   12.0   139.7    995    1    35          
1992-12-23 18   12.1   140.1    995    1    35          
1992-12-24 00   12.4   140.3    990    1    41          
1992-12-24 06   12.7   140.5    985    2    51          
1992-12-24 12   12.9   140.8    975    2    60          
1992-12-24 18   13.4   141.1    970    3    60          
1992-12-25 00   13.9   141.3    970    3    60          
1992-12-25 06   14.1   141.5    970    3    60          
1992-12-25 12   14.2   141.7    975    2    54          
1992-12-25 18   14.3   142.0    980    2    51          
1992-12-26 00   14.4   142.3    985    2    45          
1992-12-26 06   14.4   142.7    985    2    45          
1992-12-26 12   14.3   143.0    990    1    45          
1992-12-26 18   14.2   143.1    990    1    45          
1992-12-27 00   14.1   143.2    990    1    45          
1992-12-27 06   13.8   143.4    990    1    45          
1992-12-27 12   13.5   144.1    995    1    31          
1992-12-27 18   13.3   144.7    995    1    31          
1992-12-28 00   13.2   145.5    990    1    41          
1992-12-28 06   13.4   146.3    990    1    41          
1992-12-28 12   13.6   146.8    990    1    41          
1992-12-28 18   13.7   147.3    990    1    41          
1992-12-29 00   14.2   148.7    990    1    45          
1992-12-29 06   14.7   149.9    985    2    51          
1992-12-29 12   15.1   150.9    980    2    60          
1992-12-29 18   15.2   151.3    980    2    60          
1992-12-30 00   14.9   152.0    975    2    64          
1992-12-30 06   14.6   152.5    970    3    70          
1992-12-30 12   14.3   153.2    970    3    70          
1992-12-30 18   13.9   153.8    970    3    64          
1992-12-31 00   13.5   154.6    970    3    64          
1992-12-31 06   13.2   155.2    965    3    64          
1992-12-31 12   12.9   155.8    965    3    70          
1992-12-31 18   12.6   156.7    960    3    70          
1993-01-01 00   12.0   158.0    960    3    76          
1993-01-01 06   11.8   159.2    960    3    76          
1993-01-01 12   11.7   160.4    960    3    76          
1993-01-01 18   11.6   161.7    960    3    76          
1993-01-02 00   11.5   163.8    960    3    76          
1993-01-02 06   11.5   165.8    965    3    70          
1993-01-02 12   11.6   168.5    975    2    60          
1993-01-02 18   11.7   170.9    980    2    60          
Winds are 10-min average.

Tropical cyclone tracks developed by Michael Bath using data from the Bureau of Meteorology and Google Maps.


[Australian Severe Weather index] [Copyright Notice] [Email Contacts] [Search This Site] [Privacy Policy]
Document: tropical_cyclone_nina.htm Updated: 30 May 2013